createdAt,value
2023-05-12T00:00:37.821Z,8.90
2023-05-12T00:05:46.364Z,9.00
2023-05-12T00:10:52.453Z,8.70
2023-05-12T00:15:59.426Z,8.50
2023-05-12T00:21:07.419Z,8.60
2023-05-12T00:26:13.379Z,8.30
2023-05-12T00:31:20.091Z,8.10
2023-05-12T00:36:27.020Z,8.10
2023-05-12T00:41:32.889Z,8.30
2023-05-12T00:46:39.257Z,8.60
2023-05-12T00:51:46.523Z,8.90
2023-05-12T00:56:53.035Z,8.80
2023-05-12T01:01:59.007Z,8.70
2023-05-12T01:07:23.293Z,8.60
2023-05-12T01:12:31.684Z,8.40
2023-05-12T01:17:38.017Z,8.50
2023-05-12T01:22:45.260Z,8.30
2023-05-12T01:27:52.026Z,8.80
2023-05-12T01:32:58.622Z,8.90
2023-05-12T01:38:04.908Z,8.90
2023-05-12T01:43:11.661Z,8.80
2023-05-12T01:48:18.885Z,8.60
2023-05-12T01:53:24.555Z,8.50
2023-05-12T01:58:30.876Z,8.50
2023-05-12T02:03:38.217Z,8.60
2023-05-12T02:08:45.313Z,8.50
2023-05-12T02:13:51.516Z,8.50
2023-05-12T02:18:58.457Z,8.40
2023-05-12T02:24:04.404Z,8.70
2023-05-12T02:29:11.437Z,8.60
2023-05-12T02:34:17.940Z,8.50
2023-05-12T02:39:23.842Z,8.20
2023-05-12T02:44:30.053Z,7.90
2023-05-12T02:49:36.721Z,8.20
2023-05-12T02:54:42.225Z,8.10
2023-05-12T02:59:47.972Z,8.30
2023-05-12T03:04:53.849Z,8.20
2023-05-12T03:10:00.226Z,8.20
2023-05-12T03:15:07.480Z,8.30
2023-05-12T03:20:13.563Z,8.00
2023-05-12T03:25:19.768Z,8.00
2023-05-12T03:30:25.693Z,7.80
2023-05-12T03:35:32.280Z,7.70
2023-05-12T03:40:37.869Z,8.10
2023-05-12T03:45:43.882Z,8.10
2023-05-12T03:50:51.735Z,8.70
2023-05-12T03:55:57.830Z,8.20
2023-05-12T04:01:04.189Z,8.50
2023-05-12T04:06:10.077Z,8.90
2023-05-12T04:11:16.324Z,8.80
2023-05-12T04:16:22.684Z,8.40
2023-05-12T04:21:28.465Z,8.70
2023-05-12T04:26:34.961Z,8.80
2023-05-12T04:31:40.639Z,8.80
2023-05-12T04:36:47.714Z,9.40
2023-05-12T04:41:53.467Z,9.90
2023-05-12T04:46:59.817Z,10.30
2023-05-12T04:52:06.237Z,10.20
2023-05-12T04:57:12.230Z,10.50
2023-05-12T05:02:19.527Z,10.60
2023-05-12T05:07:26.350Z,10.80
2023-05-12T05:12:32.153Z,11.30
2023-05-12T05:17:39.054Z,11.70
2023-05-12T05:22:44.954Z,11.50
2023-05-12T05:27:53.828Z,12.00
2023-05-12T05:33:02.043Z,12.50
2023-05-12T05:38:07.977Z,12.50
2023-05-12T05:43:14.112Z,12.60
2023-05-12T05:48:20.653Z,12.80
2023-05-12T05:53:27.697Z,12.90
2023-05-12T05:58:34.740Z,12.80
2023-05-12T06:03:40.908Z,12.90
2023-05-12T06:08:48.921Z,13.30
2023-05-12T06:13:54.935Z,13.30
2023-05-12T06:19:02.900Z,13.30
2023-05-12T06:24:09.411Z,13.70
2023-05-12T06:29:15.561Z,14.00
2023-05-12T06:34:21.445Z,14.30
2023-05-12T06:39:27.707Z,14.70
2023-05-12T06:44:33.877Z,14.90
2023-05-12T06:49:39.579Z,15.50
2023-05-12T06:54:45.113Z,16.00
2023-05-12T06:59:51.382Z,16.30
2023-05-12T07:04:57.110Z,16.40
2023-05-12T07:10:03.083Z,16.60
2023-05-12T07:15:09.752Z,17.30
2023-05-12T07:20:15.794Z,17.50
2023-05-12T07:25:22.364Z,17.80
2023-05-12T07:30:30.073Z,17.90
2023-05-12T07:35:37.034Z,17.80
2023-05-12T07:40:43.182Z,18.10
2023-05-12T07:45:49.578Z,18.90
2023-05-12T07:50:55.260Z,19.40
2023-05-12T07:56:00.727Z,19.70
2023-05-12T08:01:08.538Z,19.10
2023-05-12T08:06:18.625Z,19.30
2023-05-12T08:11:25.088Z,19.60
2023-05-12T08:16:30.700Z,19.90
2023-05-12T08:21:38.695Z,19.90
2023-05-12T08:26:44.515Z,19.90
2023-05-12T08:31:50.071Z,19.70
2023-05-12T08:36:56.664Z,19.60
2023-05-12T08:42:32.812Z,20.20
2023-05-12T08:47:41.177Z,20.30
2023-05-12T08:52:47.156Z,19.60
2023-05-12T08:57:53.355Z,18.90
2023-05-12T09:03:02.361Z,20.00
2023-05-12T09:08:10.398Z,19.90
2023-05-12T09:13:19.134Z,19.70
2023-05-12T09:18:27.081Z,19.40
2023-05-12T09:23:32.862Z,18.50
2023-05-12T09:28:39.588Z,18.40
2023-05-12T09:33:45.453Z,19.00
2023-05-12T09:39:08.047Z,19.80
2023-05-12T09:44:17.012Z,19.40
2023-05-12T09:49:26.885Z,19.70
2023-05-12T09:54:34.492Z,20.00
2023-05-12T09:59:41.700Z,20.00
2023-05-12T10:04:56.444Z,20.20
2023-05-12T10:10:04.783Z,19.40
2023-05-12T10:15:13.186Z,19.70
2023-05-12T10:20:21.136Z,18.90
2023-05-12T10:25:27.390Z,19.60
2023-05-12T10:30:33.394Z,20.30
2023-05-12T10:35:40.606Z,19.80
2023-05-12T10:41:03.266Z,20.00
2023-05-12T10:46:19.408Z,19.00
2023-05-12T10:51:33.559Z,18.50
2023-05-12T10:56:42.949Z,20.40
2023-05-12T11:02:10.693Z,19.00
2023-05-12T11:07:20.298Z,18.70
2023-05-12T11:12:28.058Z,18.20
2023-05-12T11:17:33.863Z,19.20
2023-05-12T11:22:43.298Z,18.10
2023-05-12T11:27:53.448Z,18.10
2023-05-12T11:33:04.368Z,18.40
2023-05-12T11:38:17.931Z,19.30
2023-05-12T11:43:23.760Z,18.80
2023-05-12T11:48:36.974Z,18.00
2023-05-12T11:53:42.738Z,18.50
2023-05-12T11:59:00.018Z,18.30
2023-05-12T12:04:07.266Z,18.70
2023-05-12T12:09:13.633Z,18.80
2023-05-12T12:14:19.464Z,18.20
2023-05-12T12:19:26.017Z,18.00
2023-05-12T12:24:32.840Z,18.10
2023-05-12T12:29:38.952Z,18.10
2023-05-12T12:34:47.041Z,17.70
2023-05-12T12:39:53.303Z,18.60
2023-05-12T12:44:59.469Z,18.40
2023-05-12T12:50:07.551Z,18.90
2023-05-12T12:55:14.641Z,18.10
2023-05-12T13:00:21.278Z,18.50
2023-05-12T13:05:27.110Z,19.10
2023-05-12T13:10:34.242Z,18.40
2023-05-12T13:15:44.146Z,18.50
2023-05-12T13:20:51.995Z,18.20
2023-05-12T13:25:59.507Z,18.00
2023-05-12T13:31:05.424Z,18.00
2023-05-12T13:36:12.750Z,17.90
2023-05-12T13:41:19.528Z,18.00
2023-05-12T13:46:25.976Z,18.10
2023-05-12T13:51:32.715Z,18.60
2023-05-12T13:56:38.593Z,18.50
2023-05-12T14:01:47.604Z,18.40
2023-05-12T14:06:54.246Z,18.00
2023-05-12T14:12:00.464Z,17.80
2023-05-12T14:17:06.030Z,17.70
2023-05-12T14:22:22.404Z,17.60
2023-05-12T14:27:21.884Z,17.40
2023-05-12T14:32:29.356Z,17.40
2023-05-12T14:37:37.092Z,17.70
2023-05-12T14:42:43.960Z,17.70
2023-05-12T14:47:51.425Z,17.70
2023-05-12T14:52:57.646Z,17.70
2023-05-12T14:58:03.755Z,17.90
2023-05-12T15:03:10.309Z,17.70
2023-05-12T15:08:17.320Z,17.80
2023-05-12T15:13:23.125Z,17.50
2023-05-12T15:18:29.299Z,18.00
2023-05-12T15:23:36.364Z,18.90
2023-05-12T15:28:41.865Z,18.50
2023-05-12T15:33:48.442Z,18.30
2023-05-12T15:38:54.212Z,18.00
2023-05-12T15:44:00.934Z,17.80
2023-05-12T15:49:06.469Z,17.70
2023-05-12T15:54:12.583Z,17.80
2023-05-12T15:59:19.010Z,17.70
2023-05-12T16:04:25.888Z,17.30
2023-05-12T16:09:31.499Z,17.20
2023-05-12T16:14:37.034Z,17.20
2023-05-12T16:19:44.350Z,17.10
2023-05-12T16:24:49.997Z,17.10
2023-05-12T16:29:57.668Z,17.50
2023-05-12T16:35:04.157Z,17.70
2023-05-12T16:40:11.248Z,17.70
2023-05-12T16:45:17.455Z,17.50
2023-05-12T16:50:22.938Z,17.40
2023-05-12T16:55:29.127Z,17.10
2023-05-12T17:00:35.154Z,17.00
2023-05-12T17:05:42.886Z,16.90
2023-05-12T17:10:50.238Z,16.70
2023-05-12T17:15:56.801Z,16.60
2023-05-12T17:21:03.203Z,16.50
2023-05-12T17:26:08.868Z,16.50
2023-05-12T17:31:15.335Z,16.50
2023-05-12T17:36:21.498Z,16.40
2023-05-12T17:41:29.360Z,16.50
2023-05-12T17:46:35.453Z,16.50
2023-05-12T17:51:42.622Z,16.50
2023-05-12T17:56:48.792Z,16.40
2023-05-12T18:01:54.720Z,16.20
2023-05-12T18:07:00.777Z,16.20
2023-05-12T18:12:08.344Z,16.00
2023-05-12T18:17:14.630Z,15.90
2023-05-12T18:22:21.497Z,15.80
2023-05-12T18:27:28.606Z,15.60
2023-05-12T18:32:35.280Z,15.50
2023-05-12T18:37:43.000Z,15.50
2023-05-12T18:42:49.674Z,15.40
2023-05-12T18:47:55.366Z,15.50
2023-05-12T18:53:20.537Z,15.40
2023-05-12T18:58:31.188Z,15.40
2023-05-12T19:03:37.274Z,15.30
2023-05-12T19:08:43.393Z,15.20
2023-05-12T19:13:50.849Z,15.30
2023-05-12T19:18:58.464Z,15.20
2023-05-12T19:24:04.694Z,15.00
2023-05-12T19:29:10.304Z,14.90
2023-05-12T19:34:17.261Z,14.70
2023-05-12T19:39:23.747Z,14.50
2023-05-12T19:44:30.129Z,14.40
2023-05-12T19:49:39.179Z,14.20
2023-05-12T19:54:45.779Z,14.10
2023-05-12T19:59:53.806Z,14.10
2023-05-12T20:05:02.974Z,14.00
2023-05-12T20:10:10.239Z,13.90
2023-05-12T20:15:17.581Z,13.80
2023-05-12T20:20:27.344Z,13.80
2023-05-12T20:25:43.407Z,13.60
2023-05-12T20:30:52.493Z,13.40
2023-05-12T20:36:00.276Z,13.20
2023-05-12T20:41:07.608Z,13.00
2023-05-12T20:46:15.358Z,12.70
2023-05-12T20:51:23.554Z,12.60
2023-05-12T20:56:30.547Z,12.50
2023-05-12T21:01:36.682Z,12.80
2023-05-12T21:06:42.469Z,12.60
2023-05-12T21:11:49.906Z,12.60
2023-05-12T21:16:55.629Z,12.70
2023-05-12T21:22:01.960Z,12.70
2023-05-12T21:27:08.879Z,12.50
2023-05-12T21:32:16.998Z,12.40
2023-05-12T21:37:22.722Z,12.40
2023-05-12T21:42:28.538Z,12.30
2023-05-12T21:47:34.421Z,12.40
2023-05-12T21:52:41.471Z,12.10
2023-05-12T21:57:47.608Z,11.90
2023-05-12T22:02:54.849Z,11.70
2023-05-12T22:08:00.925Z,11.70
2023-05-12T22:13:07.526Z,11.30
2023-05-12T22:18:13.550Z,11.40
2023-05-12T22:23:20.162Z,11.10
2023-05-12T22:28:26.444Z,10.80
2023-05-12T22:33:32.809Z,10.90
2023-05-12T22:38:39.021Z,10.60
2023-05-12T22:43:46.467Z,10.40
2023-05-12T22:48:53.785Z,10.00
2023-05-12T22:53:59.792Z,10.00
2023-05-12T22:59:06.318Z,10.10
2023-05-12T23:04:12.152Z,10.00
2023-05-12T23:09:18.334Z,10.10
2023-05-12T23:14:24.118Z,9.90
2023-05-12T23:19:29.855Z,9.60
2023-05-12T23:24:36.104Z,9.50
2023-05-12T23:29:42.314Z,9.30
2023-05-12T23:34:47.810Z,9.30
2023-05-12T23:39:53.678Z,9.10
2023-05-12T23:44:59.352Z,9.10
2023-05-12T23:50:06.659Z,9.40
2023-05-12T23:55:12.411Z,9.20
